Etusivu
METAR-TAF:

METAR-TAF

Lentoasemat :

Linzin lentoasema

Linz, Itävalta

Leveyspiiri: 48-14N, Pituuspiiri: 014-11E, korkeus merenpinnasta: 298 m

Tämänhetkinen sää

Tämä raportti tehtiin 36 minuuttia sitten, kello 21.20 UTC
Tuuli 8 kn idästä
Lämpötila 6°C
Kosteus 56%
Ilmanpaine 1019 hPa
Näkyvyys 10 km tai enemmän
Muutamia pilviä 4600 ft:n korkeudessa
Hajonneita pilviä 5000 ft:n korkeudessa
Hajonneita pilviä 7000 ft:n korkeudessa

METAR: LOWL 212120Z AUTO 09008KT 9999 FEW046 BKN050 BKN070 06/M02 Q1019

Aika: 23:56 (21:56 UTC)

Sääennuste

Tämä raportti tehtiin 4 tuntia ja 41 minuuttia sitten, kello 17.15 UTC
Ennuste voimassa 21. päivästä klo 18 UTC - 22. päivään klo 18 UTC
Tuuli 8 kn idästä/koillisesta
Näkyvyys 10 km tai enemmän
Hajonneita pilviä 6000 ft:n korkeudessa
Ajoittain
21. päivästä klo 18 UTC - 21. päivään klo 20 UTC
Tuuli 3 kn eri suunnista

TAF: LOWL 211715Z 2118/2218 06008KT 9999 BKN060 TX08/2213Z TN01/2204Z TEMPO 2118/2120 VRB03KT

Säähavainnot ja -ennusteet yli 4000 lentoasemalta (METAR- ja TAF-raportit).

Käytössä olevat sääasemat on merkitty karttaan keltaisilla ja punaisilla pisteillä.

Aseta hiiri pisteen päälle nähdäksesi sääaseman nimen.

Klikkaa sitten nähdäksesi säähavainnot ja -ennusteet.

Kartan vaihtaminen: klikkaa mustalla rastilla varustettuja vihreitä pisteitä, niin voit zoomata sisään; viivalla varustettua vihreää pistettä, niin voit zoomata ulos tai vihreitä nuolia, niin pääset viereisille kartoille.


METAR-TAF: